Old Willapa, Washington
Current Conditions -  °F | °C
As of 5:53 AM on Monday 20 Oct 2014 (Local Time) from KHQM Reporting Station
Overcast Overcast  
Wind Chill: 58°   Ceiling: 1600
Heat Index: 58°   Visibility: 8mi
Dew Point: 56°   Wind: 10mph
Humidity: 93%   Direction: 160°SSE
Pressure: 29.7"   Gusts: NA
Location:  46.6563°N, 123.58°W
Report Text: KHQM 201253Z AUTO 16009KT 8SM BKN016 BKN024 OVC031 14/13 A2970 RMK AO2 SLP059 T01440133
Loading
Personal Weather Stations






























Interactive Weather Map
Tropical Storm Tracking
New forecast layout! Learn more

10-Day Weather Forecast

Advertisements
Track Severe Weather on mobile